Time;durP1;ratioP1;P1;durP2;ratioP2;P2;SDS_P1;SDS_P2;PMS_P1;PMS_P2;Temp;Humidity;BMP_temperature;BMP_pressure;BME280_temperature;BME280_humidity;BME280_pressure;Samples;Min_cycle;Max_cycle;Signal;HPM_P1;HPM_P2
2022/01/29 00:02:07;;;;;;;;;14.25;11.75;;;;;8.68;70.32;102778.00;5056149;28;45602;-81
2022/01/29 00:04:33;;;;;;;;;17.00;14.25;;;;;8.67;70.24;102763.22;5055558;28;45613;-82
2022/01/29 00:06:58;;;;;;;;;17.25;15.25;;;;;8.61;70.20;102748.56;5055288;28;45447;-81
2022/01/29 00:09:24;;;;;;;;;19.25;14.00;;;;;8.88;70.21;102791.34;5054972;28;45521;-81
2022/01/29 00:11:55;;;;;;;;;12.00;11.00;;;;;8.82;70.36;102776.69;5055063;28;46403;-82
2022/01/29 00:14:21;;;;;;;;;15.50;13.75;;;;;8.69;70.36;102771.88;5036759;28;45770;-81
2022/01/29 00:16:49;;;;;;;;;15.50;13.00;;;;;8.47;70.21;102721.13;5036866;28;45551;-79
2022/01/29 00:19:15;;;;;;;;;11.25;11.00;;;;;8.27;70.07;102685.06;5054899;28;46499;-81
2022/01/29 00:21:40;;;;;;;;;12.75;11.50;;;;;8.69;70.04;102749.19;5053055;28;47561;-79
2022/01/29 00:24:06;;;;;;;;;12.75;12.00;;;;;8.50;70.19;102715.81;5054827;28;45587;-82
2022/01/29 00:26:31;;;;;;;;;14.00;11.00;;;;;8.86;70.17;102769.59;5055127;28;45819;-81
2022/01/29 00:28:58;;;;;;;;;12.00;10.25;;;;;8.92;69.98;102773.78;5054806;28;45575;-81
2022/01/29 00:31:23;;;;;;;;;13.50;11.75;;;;;8.80;70.14;102756.72;5054738;28;46085;-81
2022/01/29 00:33:49;;;;;;;;;15.50;13.00;;;;;8.88;70.18;102759.97;5054618;28;45612;-81
2022/01/29 00:36:15;;;;;;;;;14.75;12.00;;;;;8.84;69.97;102754.00;5055049;28;45818;-82
2022/01/29 00:38:40;;;;;;;;;11.75;11.00;;;;;8.81;70.09;102747.97;5054880;28;45690;-80
2022/01/29 00:41:06;;;;;;;;;15.00;13.00;;;;;8.85;70.12;102742.59;5057110;28;45665;-79
2022/01/29 00:43:31;;;;;;;;;14.25;10.75;;;;;8.83;70.14;102752.28;5057221;28;45511;-79
2022/01/29 00:49:18;;;;;;;;;12.00;11.25;;;;;8.79;69.91;102748.03;5054039;28;46011;-81
2022/01/29 00:51:44;;;;;;;;;15.50;13.50;;;;;8.75;70.25;102738.56;5054140;28;46086;-81
2022/01/29 00:54:09;;;;;;;;;14.00;12.25;;;;;8.77;70.22;102741.13;5054632;28;45999;-80
2022/01/29 00:56:34;;;;;;;;;13.50;11.00;;;;;8.75;70.14;102737.69;5054587;28;45693;-82
2022/01/29 00:59:00;;;;;;;;;14.75;13.00;;;;;8.63;70.18;102718.03;5053974;28;46424;-81
2022/01/29 01:04:47;;;;;;;;;13.50;13.25;;;;;8.62;70.34;102724.16;5057652;28;45909;-83
2022/01/29 01:07:13;;;;;;;;;14.75;11.00;;;;;8.56;70.40;102713.00;5056691;28;45664;-82
2022/01/29 01:09:39;;;;;;;;;16.00;14.00;;;;;8.70;70.38;102730.00;5058215;28;46207;-79
2022/01/29 01:12:05;;;;;;;;;15.00;10.00;;;;;8.70;70.63;102727.38;5058400;28;45771;-82
2022/01/29 01:14:30;;;;;;;;;14.00;12.00;;;;;8.67;70.36;102714.41;5058033;28;45649;-83
2022/01/29 01:16:56;;;;;;;;;13.50;12.00;;;;;8.71;70.48;102731.72;5057928;28;45834;-82
2022/01/29 01:19:25;;;;;;;;;13.25;12.25;;;;;8.54;70.62;102700.00;5058431;28;45786;-83
2022/01/29 01:21:54;;;;;;;;;16.50;11.75;;;;;8.68;70.93;102718.75;5041083;28;46172;-82
2022/01/29 01:24:20;;;;;;;;;13.75;10.75;;;;;8.64;71.00;102718.84;5058199;28;45806;-83
2022/01/29 01:26:45;;;;;;;;;14.75;12.25;;;;;8.66;70.93;102723.16;5040447;28;45691;-83
2022/01/29 01:29:10;;;;;;;;;13.25;11.25;;;;;8.53;71.24;102702.66;5040420;28;46286;-84
2022/01/29 01:35:08;;;;;;;;;15.50;11.50;;;;;8.63;71.29;102720.66;5057882;28;45897;-81
2022/01/29 01:37:44;;;;;;;;;8.75;7.50;;;;;8.57;71.40;102712.97;5057197;28;45605;-81
2022/01/29 01:40:10;;;;;;;;;16.50;12.50;;;;;8.63;71.47;102730.25;5057535;28;45659;-82
2022/01/29 01:42:36;;;;;;;;;14.75;12.25;;;;;8.64;71.56;102731.91;5043123;28;48315;-82
2022/01/29 01:45:02;;;;;;;;;15.00;11.00;;;;;8.50;71.52;102698.38;5037211;28;45600;-82
2022/01/29 01:47:27;;;;;;;;;18.25;14.25;;;;;8.66;71.65;102722.28;5037172;28;45526;-81
2022/01/29 01:49:52;;;;;;;;;11.00;11.00;;;;;8.65;71.74;102712.75;5037047;28;46216;-80
2022/01/29 01:52:18;;;;;;;;;13.50;11.75;;;;;8.63;71.79;102715.41;5018974;28;47461;-80
2022/01/29 01:54:44;;;;;;;;;14.00;12.25;;;;;8.58;71.83;102703.38;5036808;28;45654;-80
2022/01/29 01:57:12;;;;;;;;;13.75;11.75;;;;;8.50;72.02;102690.53;5037047;28;45673;-83
2022/01/29 01:59:38;;;;;;;;;14.25;11.25;;;;;8.63;72.01;102714.56;5019260;28;47775;-84
2022/01/29 02:02:04;;;;;;;;;13.00;11.75;;;;;8.40;72.08;102679.50;5036627;28;46302;-82
2022/01/29 02:04:32;;;;;;;;;6.00;4.00;;;;;8.56;72.13;102695.59;5037776;28;45558;-79
2022/01/29 02:06:58;;;;;;;;;12.50;11.00;;;;;8.49;72.36;102682.72;5037413;28;45542;-83
2022/01/29 02:09:25;;;;;;;;;14.00;13.50;;;;;8.51;72.48;102683.56;5037553;28;45648;-83
2022/01/29 02:11:57;;;;;;;;;12.00;10.25;;;;;8.57;72.28;102699.91;5036685;28;46207;-80
2022/01/29 02:14:27;;;;;;;;;11.50;11.50;;;;;8.57;72.24;102694.69;5035722;28;45951;-84
2022/01/29 02:20:18;;;;;;;;;13.75;9.25;;;;;8.55;72.37;102687.78;5037786;28;45597;-83
2022/01/29 02:22:45;;;;;;;;;15.00;13.75;;;;;8.56;72.44;102682.53;5053610;28;45527;-83
2022/01/29 02:25:48;;;;;;;;;17.00;14.50;;;;;8.55;72.31;102675.59;5037539;28;45751;-82
2022/01/29 02:28:16;;;;;;;;;13.00;11.50;;;;;8.55;72.32;102680.81;5036933;28;46016;-81
2022/01/29 02:30:45;;;;;;;;;10.75;10.00;;;;;8.58;72.64;102669.44;5036689;28;47393;-82
2022/01/29 02:33:13;;;;;;;;;12.75;10.25;;;;;8.58;72.75;102674.66;5036140;28;47252;-83
2022/01/29 02:35:41;;;;;;;;;13.75;10.00;;;;;8.46;72.47;102652.34;5036437;28;45854;-82
2022/01/29 02:38:08;;;;;;;;;15.50;12.25;;;;;8.44;72.59;102641.09;5035387;28;45930;-83
2022/01/29 02:40:38;;;;;;;;;11.00;9.50;;;;;8.58;72.50;102656.38;5035053;28;45737;-82
2022/01/29 02:43:20;;;;;;;;;14.00;12.00;;;;;8.56;72.55;102653.78;5052420;28;47200;-82
2022/01/29 02:46:40;;;;;;;;;14.50;13.50;;;;;8.51;72.60;102629.56;5056365;28;45644;-84
2022/01/29 02:49:27;;;;;;;;;12.25;10.25;;;;;8.60;73.07;102651.94;5020826;28;45702;-84
2022/01/29 02:51:56;;;;;;;;;15.50;11.75;;;;;8.52;72.89;102633.03;5055709;28;45626;-81
2022/01/29 02:54:27;;;;;;;;;11.25;9.75;;;;;8.49;72.94;102617.44;5056214;28;46389;-82
2022/01/29 02:56:53;;;;;;;;;11.75;10.75;;;;;8.58;72.74;102632.84;5021326;28;45884;-78
2022/01/29 02:59:19;;;;;;;;;13.75;11.75;;;;;8.47;72.88;102606.19;5056046;28;45791;-80
2022/01/29 03:01:49;;;;;;;;;9.00;9.00;;;;;8.46;73.09;102597.50;5054946;28;48537;-85
2022/01/29 03:04:17;;;;;;;;;10.25;9.50;;;;;8.54;73.08;102619.00;5056016;28;46232;-82
2022/01/29 03:06:43;;;;;;;;;12.00;11.00;;;;;8.32;73.11;102582.22;5056101;28;45900;-82
2022/01/29 03:09:08;;;;;;;;;6.25;5.00;;;;;8.45;73.23;102598.41;5056101;28;45998;-82
2022/01/29 03:11:34;;;;;;;;;10.50;10.00;;;;;8.52;73.25;102609.53;5056921;28;46648;-84
2022/01/29 03:14:19;;;;;;;;;13.75;10.75;;;;;8.31;73.27;102564.84;5055368;28;47401;-85
2022/01/29 03:16:52;;;;;;;;;12.00;9.75;;;;;8.19;73.32;102552.16;5056845;28;45868;-83
2022/01/29 03:19:17;;;;;;;;;8.50;7.50;;;;;8.34;73.63;102569.13;5054429;28;45625;-79
2022/01/29 03:21:43;;;;;;;;;14.00;11.25;;;;;8.24;73.52;102565.91;5055924;28;45561;-83
2022/01/29 03:24:08;;;;;;;;;11.50;11.00;;;;;8.45;73.57;102603.63;5055344;28;47103;-82
2022/01/29 03:26:33;;;;;;;;;8.75;8.75;;;;;8.38;73.54;102591.63;5055642;28;45526;-82
2022/01/29 03:29:02;;;;;;;;;10.00;9.50;;;;;8.16;73.72;102557.44;5056362;28;45687;-82
2022/01/29 03:31:27;;;;;;;;;9.75;8.50;;;;;8.16;73.88;102562.66;5037735;28;45828;-79
2022/01/29 03:33:53;;;;;;;;;8.00;8.00;;;;;8.39;74.23;102595.97;5056024;28;45732;-82
2022/01/29 03:36:18;;;;;;;;;10.50;10.25;;;;;8.28;74.31;102582.34;5072236;28;45660;-82
2022/01/29 03:38:44;;;;;;;;;9.50;8.25;;;;;8.06;74.20;102547.31;5059053;28;45707;-79
2022/01/29 03:41:12;;;;;;;;;9.25;9.00;;;;;8.11;74.23;102555.88;5056515;28;46159;-77
2022/01/29 03:43:44;;;;;;;;;13.00;10.50;;;;;8.33;74.63;102609.19;5055197;28;46035;-83
2022/01/29 03:46:10;;;;;;;;;10.25;9.50;;;;;8.19;74.59;102575.66;5037775;28;45865;-81
2022/01/29 03:48:36;;;;;;;;;14.75;11.00;;;;;8.32;74.52;102607.50;5055465;28;45690;-80
2022/01/29 03:51:01;;;;;;;;;10.00;9.25;;;;;8.31;74.57;102598.78;5054668;28;47332;-80
2022/01/29 03:53:26;;;;;;;;;10.50;7.50;;;;;8.31;74.57;102590.13;5055132;28;46046;-82
2022/01/29 03:55:54;;;;;;;;;11.25;9.00;;;;;8.31;74.68;102590.13;5055902;28;45687;-82
2022/01/29 03:58:20;;;;;;;;;10.75;10.00;;;;;8.36;74.80;102589.09;5055494;28;45630;-82
2022/01/29 04:00:48;;;;;;;;;12.00;11.00;;;;;8.38;74.77;102591.63;5055557;28;45544;-82
2022/01/29 04:03:19;;;;;;;;;12.25;9.00;;;;;8.44;74.74;102591.47;5055996;28;46019;-82
2022/01/29 04:05:45;;;;;;;;;10.00;9.00;;;;;8.36;74.72;102586.47;5055790;28;45551;-83
2022/01/29 04:08:16;;;;;;;;;14.25;11.25;;;;;8.29;74.38;102563.16;5036724;28;45825;-81
2022/01/29 04:10:42;;;;;;;;;11.00;11.00;;;;;8.29;74.79;102565.78;5070797;28;48395;-82
2022/01/29 04:13:11;;;;;;;;;12.75;11.50;;;;;8.51;74.86;102602.59;5054936;28;46103;-81
2022/01/29 04:15:36;;;;;;;;;15.75;11.25;;;;;8.52;74.77;102586.00;5055050;28;45924;-81
2022/01/29 04:18:02;;;;;;;;;11.50;8.75;;;;;8.53;74.77;102587.72;5056132;28;45736;-82
2022/01/29 04:20:27;;;;;;;;;10.50;10.00;;;;;8.55;74.73;102585.91;5055410;28;45576;-81
2022/01/29 04:22:54;;;;;;;;;11.25;8.25;;;;;8.47;75.01;102574.84;5055421;28;46003;-80
2022/01/29 04:25:19;;;;;;;;;11.25;9.75;;;;;8.56;74.87;102583.25;5054405;28;45759;-82
2022/01/29 04:27:48;;;;;;;;;12.75;10.00;;;;;8.39;74.97;102554.19;5057535;28;45683;-82
2022/01/29 04:30:31;;;;;;;;;10.00;8.75;;;;;8.59;75.14;102590.13;5076253;28;47652;-82
2022/01/29 04:36:21;;;;;;;;;13.75;10.00;;;;;8.60;75.23;102597.94;5070039;28;45467;-81
2022/01/29 04:38:46;;;;;;;;;8.75;6.75;;;;;8.30;75.11;102546.63;5067411;28;45582;-81
2022/01/29 04:41:12;;;;;;;;;10.00;9.50;;;;;8.63;75.10;102603.06;5041069;28;46476;-78
2022/01/29 04:43:37;;;;;;;;;14.75;10.75;;;;;8.32;75.11;102537.84;5042168;28;45614;-79
2022/01/29 04:46:03;;;;;;;;;11.00;9.75;;;;;8.67;75.12;102586.38;5067894;28;45710;-79
2022/01/29 04:48:29;;;;;;;;;11.75;10.25;;;;;8.64;75.13;102578.63;5071265;28;45498;-81
2022/01/29 04:50:54;;;;;;;;;14.75;10.00;;;;;8.66;75.22;102573.38;5072458;28;46227;-80
2022/01/29 04:53:20;;;;;;;;;7.00;2.50;;;;;8.72;75.41;102586.25;5072147;28;45586;-80
2022/01/29 04:55:46;;;;;;;;;6.50;6.50;;;;;8.69;75.38;102584.56;5068600;28;45511;-80
2022/01/29 04:58:11;;;;;;;;;12.25;10.00;;;;;8.74;75.46;102584.44;5068754;28;45506;-80
2022/01/29 05:00:37;;;;;;;;;11.00;10.00;;;;;8.75;75.47;102592.22;5065908;28;45801;-79
2022/01/29 05:06:24;;;;;;;;;10.75;8.25;;;;;8.77;75.65;102574.75;5077683;28;45667;-83
2022/01/29 05:08:52;;;;;;;;;10.75;10.00;;;;;8.80;75.53;102579.84;5073349;28;45253;-82
2022/01/29 05:11:18;;;;;;;;;9.50;9.50;;;;;8.72;75.40;102562.72;5074499;28;46633;-80
2022/01/29 05:13:44;;;;;;;;;11.25;10.75;;;;;8.79;75.41;102565.09;5074474;28;45511;-81
2022/01/29 05:27:19;;;;;;;;;12.00;10.75;;;;;8.86;75.69;102597.09;5056256;28;45624;-81
2022/01/29 05:29:54;;;;;;;;;;;;;;;;;;;;;
2022/01/29 05:35:47;;;;;;;;;8.50;8.25;;;;;8.86;75.98;102594.47;4972838;28;46097;-82
2022/01/29 05:38:56;;;;;;;;;14.75;11.25;;;;;8.75;75.83;102579.16;4933757;28;46148;-82
2022/01/29 05:41:44;;;;;;;;;;;;;;;;;;;;;
2022/01/29 05:44:10;;;;;;;;;14.75;11.25;;;;;8.77;76.31;102563.44;4932255;28;75938;-83
2022/01/29 05:46:39;;;;;;;;;12.00;9.00;;;;;8.87;76.37;102572.69;4917310;28;46084;-82
2022/01/29 05:49:04;;;;;;;;;10.25;10.00;;;;;8.88;76.25;102568.31;4935810;28;45672;-82
2022/01/29 05:51:32;;;;;;;;;15.25;12.00;;;;;8.81;76.72;102555.44;4937356;28;45580;-81
2022/01/29 05:53:59;;;;;;;;;9.50;8.75;;;;;8.89;76.41;102570.88;4936823;28;46557;-79
2022/01/29 05:56:26;;;;;;;;;7.75;7.75;;;;;8.90;76.41;102566.50;4920600;28;46115;-82
2022/01/29 05:58:52;;;;;;;;;15.00;11.75;;;;;8.63;76.55;102523.84;4937321;28;46089;-83
2022/01/29 06:07:47;;;;;;;;;14.75;10.25;;;;;8.70;76.60;102530.56;4936294;28;46152;-83
2022/01/29 06:10:31;;;;;;;;;14.25;13.00;;;;;8.93;76.74;102572.47;4936737;28;45590;-81
2022/01/29 06:13:11;;;;;;;;;11.00;10.25;;;;;8.58;76.68;102510.94;4950480;28;45716;-82
2022/01/29 06:15:41;;;;;;;;;11.50;10.50;;;;;8.83;76.80;102543.19;5017662;28;47712;-81
2022/01/29 06:18:18;;;;;;;;;12.75;11.00;;;;;8.94;76.87;102563.75;5036459;28;46944;-83
2022/01/29 06:20:45;;;;;;;;;14.50;12.00;;;;;8.98;76.97;102562.72;5036846;28;45893;-84
2022/01/29 06:23:12;;;;;;;;;14.00;11.25;;;;;8.96;76.50;102556.69;5035158;28;45523;-82
2022/01/29 06:25:37;;;;;;;;;12.50;12.00;;;;;9.03;76.67;102567.78;5036504;28;47344;-81
2022/01/29 06:28:03;;;;;;;;;11.25;8.25;;;;;8.92;76.70;102543.78;5036384;28;45778;-80
2022/01/29 06:30:29;;;;;;;;;13.25;11.25;;;;;9.07;76.52;102577.28;5036417;28;45737;-79
2022/01/29 06:33:17;;;;;;;;;11.75;10.00;;;;;9.09;76.65;102570.22;5037016;28;45794;-82
2022/01/29 06:35:46;;;;;;;;;10.25;9.00;;;;;9.05;76.62;102573.84;5036716;28;45583;-80
2022/01/29 06:38:13;;;;;;;;;8.00;8.00;;;;;9.01;76.73;102552.19;5036370;28;46000;-84
2022/01/29 06:40:40;;;;;;;;;8.25;8.25;;;;;8.99;76.55;102559.22;5038505;28;45637;-81
2022/01/29 06:43:08;;;;;;;;;10.75;7.00;;;;;9.00;76.74;102557.47;5051252;28;45656;-81
2022/01/29 06:45:35;;;;;;;;;9.25;7.00;;;;;9.13;76.81;102564.81;5056662;28;47692;-81
2022/01/29 06:48:01;;;;;;;;;7.00;6.25;;;;;9.02;76.86;102546.03;5056424;28;46431;-82
2022/01/29 06:50:27;;;;;;;;;12.00;10.75;;;;;9.17;76.94;102568.22;5056448;28;45886;-81
2022/01/29 06:52:53;;;;;;;;;10.00;7.75;;;;;9.18;77.04;102551.59;5056597;28;45612;-82
2022/01/29 06:55:19;;;;;;;;;12.00;11.25;;;;;9.07;76.89;102538.88;5056003;28;45770;-81
2022/01/29 06:57:45;;;;;;;;;9.75;8.50;;;;;9.17;77.00;102542.06;5055970;28;45601;-83
2022/01/29 07:00:11;;;;;;;;;10.75;8.00;;;;;9.22;76.77;102553.22;5055302;28;45636;-84
2022/01/29 07:02:37;;;;;;;;;11.00;8.25;;;;;9.14;77.25;102543.00;5056202;28;45556;-83
2022/01/29 07:05:07;;;;;;;;;7.50;7.00;;;;;9.22;77.04;102551.47;5055710;28;46502;-80
2022/01/29 07:07:32;;;;;;;;;10.00;7.00;;;;;9.27;76.86;102570.47;5055744;28;46125;-81
2022/01/29 07:09:58;;;;;;;;;5.50;5.00;;;;;9.31;76.77;102567.72;5056101;28;45682;-82
2022/01/29 07:12:24;;;;;;;;;8.00;7.00;;;;;9.31;76.92;102568.59;5055996;28;45815;-81
2022/01/29 07:14:50;;;;;;;;;8.00;8.00;;;;;9.30;77.05;102559.03;5056118;28;47545;-81
2022/01/29 07:17:17;;;;;;;;;10.00;7.00;;;;;9.35;76.86;102561.47;5055936;28;46397;-81
2022/01/29 07:19:44;;;;;;;;;10.00;7.75;;;;;9.38;77.09;102564.88;5058033;28;45855;-81
2022/01/29 07:22:10;;;;;;;;;9.75;7.00;;;;;9.33;76.86;102538.00;5059194;28;45535;-81
2022/01/29 07:24:36;;;;;;;;;7.50;6.75;;;;;9.37;76.84;102542.22;5057280;28;45507;-79
2022/01/29 07:27:03;;;;;;;;;7.75;7.50;;;;;9.42;76.94;102547.28;5056891;28;45640;-79
2022/01/29 07:29:28;;;;;;;;;9.50;6.00;;;;;9.43;77.23;102546.38;5056610;28;45600;-80
2022/01/29 07:31:55;;;;;;;;;8.50;6.75;;;;;9.43;77.10;102542.00;5056679;28;45605;-81
2022/01/29 07:37:42;;;;;;;;;6.50;5.75;;;;;9.38;77.06;102527.38;5054863;28;45723;-77
2022/01/29 07:40:09;;;;;;;;;7.00;6.00;;;;;9.48;77.20;102553.16;5055185;28;45738;-79
2022/01/29 07:42:35;;;;;;;;;3.75;2.00;;;;;9.51;77.14;102558.28;5055181;28;45606;-80
2022/01/29 07:45:01;;;;;;;;;8.75;6.50;;;;;9.54;76.88;102554.72;5054514;28;46998;-79
2022/01/29 07:47:27;;;;;;;;;4.75;4.75;;;;;9.57;76.72;102559.81;5055052;28;46227;-76
2022/01/29 07:49:52;;;;;;;;;2.75;2.00;;;;;9.54;77.03;102550.34;5055151;28;45618;-80
2022/01/29 07:52:17;;;;;;;;;7.50;5.50;;;;;9.62;76.82;102556.13;5055144;28;45575;-82
2022/01/29 07:54:44;;;;;;;;;5.25;3.00;;;;;9.65;76.82;102544.72;5055061;28;46272;-82
2022/01/29 07:57:09;;;;;;;;;6.00;5.00;;;;;9.68;76.41;102561.16;5019573;28;45632;-81
2022/01/29 07:59:35;;;;;;;;;4.00;4.00;;;;;9.65;77.05;102534.25;5053602;28;45595;-82
2022/01/29 08:02:00;;;;;;;;;6.00;4.25;;;;;9.73;77.15;102553.13;5055133;28;45721;-82
2022/01/29 08:07:48;;;;;;;;;4.00;4.00;;;;;9.76;77.02;102557.41;5054545;28;46190;-80
2022/01/29 08:10:14;;;;;;;;;2.75;2.75;;;;;9.61;76.94;102522.16;5054847;28;45569;-79
2022/01/29 08:12:39;;;;;;;;;6.00;3.00;;;;;9.76;77.48;102545.19;5054192;28;45467;-81
2022/01/29 08:15:06;;;;;;;;;3.25;3.25;;;;;9.77;77.26;102546.88;5053360;28;47495;-81
2022/01/29 08:17:34;;;;;;;;;2.50;2.50;;;;;9.69;77.21;102531.47;5055085;28;46148;-82
2022/01/29 08:20:05;;;;;;;;;2.75;2.75;;;;;9.81;77.11;102547.63;5055262;28;45578;-83
2022/01/29 08:22:31;;;;;;;;;6.75;2.00;;;;;9.84;77.31;102545.75;5054606;28;45847;-83
2022/01/29 08:24:57;;;;;;;;;2.00;2.00;;;;;9.78;77.18;102525.03;5054959;28;46188;-81
2022/01/29 08:27:23;;;;;;;;;3.50;2.25;;;;;9.88;77.20;102542.09;5054867;28;46101;-84
2022/01/29 08:29:49;;;;;;;;;3.00;2.75;;;;;9.89;77.09;102533.31;5054627;28;45697;-82
2022/01/29 08:32:14;;;;;;;;;5.00;3.50;;;;;9.91;77.16;102541.13;5055079;28;45770;-81
2022/01/29 08:38:01;;;;;;;;;2.00;2.00;;;;;9.95;77.36;102548.81;5053975;28;46050;-81
2022/01/29 08:40:29;;;;;;;;;2.75;2.50;;;;;9.94;77.28;102547.09;5054689;28;45578;-79
2022/01/29 08:42:55;;;;;;;;;4.00;2.00;;;;;9.85;77.37;102523.03;5054337;28;45734;-80
2022/01/29 08:45:21;;;;;;;;;3.25;3.25;;;;;9.86;77.34;102507.28;5054360;28;47354;-79
2022/01/29 08:47:47;;;;;;;;;3.00;2.25;;;;;9.98;77.59;102543.47;5054916;28;46787;-79
2022/01/29 08:53:34;;;;;;;;;2.00;1.00;;;;;10.01;77.48;102543.34;5054278;28;45697;-78
2022/01/29 08:56:00;;;;;;;;;2.00;2.00;;;;;10.02;77.64;102531.97;5053994;28;46588;-80
2022/01/29 08:58:26;;;;;;;;;3.00;2.25;;;;;10.06;77.35;102538.78;5054276;28;46923;-80
2022/01/29 09:00:51;;;;;;;;;2.00;1.00;;;;;10.10;77.30;102537.75;5054378;28;45692;-81
2022/01/29 09:03:17;;;;;;;;;2.00;1.25;;;;;10.09;77.28;102537.84;5054262;28;45545;-80
2022/01/29 09:05:44;;;;;;;;;2.25;2.00;;;;;10.10;77.51;102529.91;5053937;28;46539;-79
2022/01/29 09:08:11;;;;;;;;;2.75;2.00;;;;;10.16;77.54;102548.91;5054140;28;46102;-80
2022/01/29 09:10:37;;;;;;;;;1.50;1.25;;;;;10.16;77.40;102541.06;5053773;28;45715;-80
2022/01/29 09:13:04;;;;;;;;;2.00;1.00;;;;;10.19;77.39;102533.13;5053860;28;45834;-82
2022/01/29 09:15:29;;;;;;;;;1.00;1.00;;;;;10.16;77.64;102523.59;5053632;28;45642;-81
2022/01/29 09:17:55;;;;;;;;;2.00;2.00;;;;;10.18;77.24;102529.66;5053936;28;46211;-82
2022/01/29 09:23:42;;;;;;;;;2.00;1.00;;;;;10.29;77.46;102539.72;5057054;28;45551;-80
2022/01/29 09:26:07;;;;;;;;;1.00;1.00;;;;;10.28;77.36;102538.84;5055942;28;47409;-79
2022/01/29 09:28:33;;;;;;;;;2.00;2.00;;;;;10.27;77.23;102528.44;5056204;28;47156;-81
2022/01/29 09:30:58;;;;;;;;;2.75;2.25;;;;;10.34;77.37;102541.25;5039546;28;45602;-79
2022/01/29 09:33:24;;;;;;;;;2.00;2.00;;;;;10.38;77.20;102526.25;5057416;28;45721;-79
2022/01/29 09:35:50;;;;;;;;;2.00;2.00;;;;;10.40;77.34;102524.44;5038948;28;46307;-81
2022/01/29 09:38:16;;;;;;;;;2.00;2.00;;;;;10.39;77.25;102515.72;5057790;28;45884;-82
2022/01/29 09:40:43;;;;;;;;;2.25;2.25;;;;;10.46;77.13;102517.19;5057565;28;46055;-81
2022/01/29 09:43:11;;;;;;;;;2.00;2.00;;;;;10.49;77.02;102522.28;5057323;28;45569;-79
2022/01/29 09:45:37;;;;;;;;;1.75;1.75;;;;;10.54;77.48;102522.09;5057135;28;46457;-79
2022/01/29 09:48:04;;;;;;;;;2.50;2.00;;;;;10.55;77.02;102520.34;5056958;28;46223;-81
2022/01/29 09:50:32;;;;;;;;;3.25;3.00;;;;;10.52;77.02;102506.47;5058071;28;45747;-81
2022/01/29 09:52:59;;;;;;;;;2.00;2.00;;;;;10.59;77.02;102522.75;5057177;28;45589;-79
2022/01/29 09:55:26;;;;;;;;;1.25;1.00;;;;;10.61;76.97;102522.72;5022815;28;47684;-80
2022/01/29 09:57:55;;;;;;;;;2.00;2.00;;;;;10.62;76.89;102522.66;5056681;28;46280;-79
2022/01/29 10:00:21;;;;;;;;;3.25;2.00;;;;;10.67;76.79;102523.31;5056967;28;45499;-78
2022/01/29 10:03:11;;;;;;;;;2.75;2.75;;;;;10.69;76.93;102539.81;5056969;28;45625;-83
2022/01/29 10:05:40;;;;;;;;;3.00;2.25;;;;;10.69;77.04;102539.81;5056545;28;46661;-79
2022/01/29 10:08:06;;;;;;;;;2.00;2.00;;;;;10.71;77.29;102538.00;5056584;28;47233;-79
2022/01/29 10:10:59;;;;;;;;;3.00;3.00;;;;;10.71;77.28;102540.63;5057077;28;45644;-79
2022/01/29 10:13:35;;;;;;;;;4.00;3.00;;;;;10.76;77.37;102554.41;5038382;28;46075;-80
2022/01/29 10:16:23;;;;;;;;;3.00;3.00;;;;;10.76;77.32;102546.53;5056280;28;45578;-76
2022/01/29 10:22:21;;;;;;;;;1.00;1.00;;;;;10.70;76.97;102533.66;5056456;28;45530;-78
2022/01/29 10:24:50;;;;;;;;;1.25;1.25;;;;;10.66;77.25;102524.22;5056658;28;45569;-79
2022/01/29 10:27:16;;;;;;;;;2.00;2.00;;;;;10.71;77.40;102534.53;5055739;28;45825;-78
2022/01/29 10:29:58;;;;;;;;;2.25;2.25;;;;;10.72;77.58;102542.34;5056346;28;45493;-76
2022/01/29 10:32:25;;;;;;;;;1.50;1.50;;;;;10.70;77.44;102538.06;5056043;28;45690;-77
2022/01/29 10:38:11;;;;;;;;;3.00;2.00;;;;;10.74;77.26;102530.00;5055620;28;45637;-78
2022/01/29 10:40:38;;;;;;;;;1.00;0.25;;;;;10.75;77.25;102534.34;5056265;28;46414;-78
2022/01/29 10:43:07;;;;;;;;;2.00;2.00;;;;;10.78;77.05;102533.38;5055512;28;45494;-78
2022/01/29 10:45:34;;;;;;;;;2.50;2.00;;;;;10.77;77.11;102536.91;5055850;28;45784;-77
2022/01/29 10:48:00;;;;;;;;;0.00;0.00;;;;;10.77;77.04;102535.13;5055481;28;47356;-77
2022/01/29 10:53:47;;;;;;;;;1.00;1.00;;;;;10.84;76.93;102543.59;5055514;28;45575;-77
2022/01/29 10:56:12;;;;;;;;;1.75;1.75;;;;;10.86;76.81;102529.50;5055706;28;45732;-78
2022/01/29 10:58:45;;;;;;;;;1.75;1.00;;;;;10.88;76.98;102535.53;5055668;28;46325;-78
2022/01/29 11:01:22;;;;;;;;;1.75;1.75;;;;;10.84;76.76;102533.13;5054337;28;46322;-78
2022/01/29 11:03:50;;;;;;;;;1.00;1.00;;;;;10.91;76.68;102532.78;5055886;28;45690;-77
2022/01/29 11:09:41;;;;;;;;;1.75;1.75;;;;;10.86;76.65;102533.88;5055532;28;45601;-77
2022/01/29 11:12:08;;;;;;;;;1.25;1.00;;;;;10.96;76.67;102539.63;5055764;28;46144;-78
2022/01/29 11:14:35;;;;;;;;;2.00;1.00;;;;;10.97;76.46;102543.94;5055289;28;45566;-82
2022/01/29 11:17:02;;;;;;;;;1.75;1.75;;;;;10.96;76.45;102529.97;5055654;28;45530;-78
2022/01/29 11:19:28;;;;;;;;;1.25;1.00;;;;;11.00;76.63;102543.81;5055204;28;46532;-78
2022/01/29 11:21:57;;;;;;;;;1.50;1.00;;;;;10.99;76.69;102542.97;5055697;28;45708;-79
2022/01/29 11:24:26;;;;;;;;;1.75;1.75;;;;;10.98;76.89;102546.50;5055266;28;45687;-79
2022/01/29 11:26:52;;;;;;;;;2.00;2.00;;;;;10.85;76.90;102519.94;5056350;28;45498;-79
2022/01/29 11:29:35;;;;;;;;;2.00;1.25;;;;;10.99;76.79;102539.50;5056067;28;46565;-78
2022/01/29 11:32:22;;;;;;;;;1.00;1.00;;;;;10.98;76.96;102561.38;5055131;28;45940;-77
2022/01/29 11:35:26;;;;;;;;;2.00;1.00;;;;;10.97;77.10;102547.41;5055046;28;45706;-79
2022/01/29 11:38:02;;;;;;;;;2.00;1.00;;;;;10.96;76.96;102537.84;4973324;28;45791;-79
2022/01/29 11:40:39;;;;;;;;;1.00;1.00;;;;;10.97;77.23;102536.06;4973240;28;46531;-76
2022/01/29 11:43:13;;;;;;;;;0.75;0.00;;;;;10.93;77.22;102538.84;4972627;28;46122;-78
2022/01/29 11:45:51;;;;;;;;;2.00;2.00;;;;;10.96;77.33;102523.91;4972322;28;45696;-81
2022/01/29 11:48:22;;;;;;;;;8.25;8.25;;;;;10.97;77.51;102536.06;4973152;28;46079;-82
2022/01/29 11:50:48;;;;;;;;;2.00;2.00;;;;;10.96;77.60;102518.66;4956580;28;46509;-81
2022/01/29 11:53:16;;;;;;;;;8.75;8.00;;;;;10.96;77.34;102521.28;4972578;28;46946;-82
2022/01/29 11:55:45;;;;;;;;;2.25;1.00;;;;;10.98;77.56;102522.03;4973089;28;45751;-79
2022/01/29 11:58:17;;;;;;;;;2.00;2.00;;;;;10.99;77.54;102515.88;4972826;28;45921;-81
2022/01/29 12:00:48;;;;;;;;;3.00;2.00;;;;;11.02;77.66;102521.00;4957181;28;45661;-78
2022/01/29 12:09:12;;;;;;;;;2.25;2.00;;;;;11.03;78.25;102517.44;4973028;28;45807;-77
2022/01/29 12:11:41;;;;;;;;;1.00;1.00;;;;;11.00;78.09;102513.22;4990287;28;48535;-78
2022/01/29 12:14:12;;;;;;;;;3.00;2.00;;;;;11.02;78.25;102518.38;5051700;28;45757;-77
2022/01/29 12:16:58;;;;;;;;;2.00;2.00;;;;;10.96;78.58;102516.03;5054232;28;45570;-78
2022/01/29 12:19:43;;;;;;;;;3.75;2.00;;;;;11.00;78.52;102521.06;5053196;28;45628;-77
2022/01/29 12:22:10;;;;;;;;;2.75;2.00;;;;;11.01;78.54;102514.91;5054178;28;45557;-77
2022/01/29 12:24:36;;;;;;;;;2.00;2.00;;;;;11.02;78.61;102508.72;5053939;28;46009;-77
2022/01/29 12:27:03;;;;;;;;;1.75;1.75;;;;;11.03;78.70;102504.34;5054527;28;45795;-78
2022/01/29 12:29:30;;;;;;;;;0.00;0.00;;;;;11.00;79.03;102491.38;5054266;28;45672;-76
2022/01/29 12:31:58;;;;;;;;;2.00;2.00;;;;;11.03;79.15;102491.22;5054464;28;46552;-76
2022/01/29 12:34:25;;;;;;;;;1.75;1.75;;;;;11.01;79.67;102480.81;5053870;28;47019;-77
2022/01/29 12:36:51;;;;;;;;;3.00;2.00;;;;;10.98;79.96;102480.09;5052338;28;45733;-80
2022/01/29 12:39:24;;;;;;;;;3.00;3.00;;;;;10.93;79.70;102464.53;5054174;28;45577;-80
2022/01/29 12:42:06;;;;;;;;;3.00;2.50;;;;;10.96;79.82;102468.81;5053754;28;46480;-79
2022/01/29 12:44:31;;;;;;;;;4.00;3.00;;;;;10.92;79.68;102453.19;5053548;28;46367;-77
2022/01/29 12:46:57;;;;;;;;;3.00;3.00;;;;;10.93;79.75;102449.66;5053671;28;45624;-79
2022/01/29 12:49:22;;;;;;;;;3.50;2.50;;;;;11.02;80.30;102460.66;5053834;28;45635;-78
2022/01/29 12:51:56;;;;;;;;;2.75;2.25;;;;;10.98;80.56;102443.38;5053662;28;46513;-78